sensor_id;sensor_type;location;lat;lon;timestamp;temperature;humidity
14749;DHT22;7466;53.574;9.976;2023-11-19T00:02:15;5.10;99.90
14749;DHT22;7466;53.574;9.976;2023-11-19T00:04:41;5.10;99.90
14749;DHT22;7466;53.574;9.976;2023-11-19T00:07:09;5.10;99.90
14749;DHT22;7466;53.574;9.976;2023-11-19T00:09:38;5.10;99.90
14749;DHT22;7466;53.574;9.976;2023-11-19T00:12:06;5.10;99.90
14749;DHT22;7466;53.574;9.976;2023-11-19T00:14:33;5.10;99.90
14749;DHT22;7466;53.574;9.976;2023-11-19T00:17:00;5.10;99.90
14749;DHT22;7466;53.574;9.976;2023-11-19T00:19:27;5.10;99.90
14749;DHT22;7466;53.574;9.976;2023-11-19T00:21:54;5.10;99.90
14749;DHT22;7466;53.574;9.976;2023-11-19T00:24:22;5.10;99.90
14749;DHT22;7466;53.574;9.976;2023-11-19T00:26:49;5.10;99.90
14749;DHT22;7466;53.574;9.976;2023-11-19T00:29:16;5.20;99.90
14749;DHT22;7466;53.574;9.976;2023-11-19T00:31:44;5.10;99.90
14749;DHT22;7466;53.574;9.976;2023-11-19T00:34:11;5.20;99.90
14749;DHT22;7466;53.574;9.976;2023-11-19T00:36:37;5.10;99.90
14749;DHT22;7466;53.574;9.976;2023-11-19T00:39:04;5.20;99.90
14749;DHT22;7466;53.574;9.976;2023-11-19T00:41:33;5.20;99.90
14749;DHT22;7466;53.574;9.976;2023-11-19T00:43:59;5.20;99.90
14749;DHT22;7466;53.574;9.976;2023-11-19T00:46:26;5.20;99.90
14749;DHT22;7466;53.574;9.976;2023-11-19T00:48:53;5.20;99.90
14749;DHT22;7466;53.574;9.976;2023-11-19T00:51:20;5.20;99.90
14749;DHT22;7466;53.574;9.976;2023-11-19T00:53:47;5.20;99.90
14749;DHT22;7466;53.574;9.976;2023-11-19T00:56:13;5.20;99.90
14749;DHT22;7466;53.574;9.976;2023-11-19T00:58:42;5.20;99.90
14749;DHT22;7466;53.574;9.976;2023-11-19T01:01:09;5.20;99.90
14749;DHT22;7466;53.574;9.976;2023-11-19T01:03:37;5.20;99.90
14749;DHT22;7466;53.574;9.976;2023-11-19T01:06:05;5.20;99.90
14749;DHT22;7466;53.574;9.976;2023-11-19T01:08:31;5.20;99.90
14749;DHT22;7466;53.574;9.976;2023-11-19T01:11:01;5.20;99.90
14749;DHT22;7466;53.574;9.976;2023-11-19T01:13:27;5.20;99.90
14749;DHT22;7466;53.574;9.976;2023-11-19T01:15:56;5.20;99.90
14749;DHT22;7466;53.574;9.976;2023-11-19T01:18:22;5.20;99.90
14749;DHT22;7466;53.574;9.976;2023-11-19T01:20:49;5.20;99.90
14749;DHT22;7466;53.574;9.976;2023-11-19T01:23:16;5.20;99.90
14749;DHT22;7466;53.574;9.976;2023-11-19T01:25:42;5.20;99.90
14749;DHT22;7466;53.574;9.976;2023-11-19T01:28:09;5.20;99.90
14749;DHT22;7466;53.574;9.976;2023-11-19T01:30:36;5.20;99.90
14749;DHT22;7466;53.574;9.976;2023-11-19T01:33:04;5.20;99.90
14749;DHT22;7466;53.574;9.976;2023-11-19T01:35:32;5.30;99.90
14749;DHT22;7466;53.574;9.976;2023-11-19T01:37:59;5.30;99.90
14749;DHT22;7466;53.574;9.976;2023-11-19T01:40:26;5.30;99.90
14749;DHT22;7466;53.574;9.976;2023-11-19T01:42:52;5.30;99.90
14749;DHT22;7466;53.574;9.976;2023-11-19T01:45:27;5.30;99.90
14749;DHT22;7466;53.574;9.976;2023-11-19T01:47:54;5.30;99.90
14749;DHT22;7466;53.574;9.976;2023-11-19T01:50:23;5.30;99.90
14749;DHT22;7466;53.574;9.976;2023-11-19T01:52:50;5.30;99.90
14749;DHT22;7466;53.574;9.976;2023-11-19T01:55:17;5.30;99.90
14749;DHT22;7466;53.574;9.976;2023-11-19T01:57:44;5.30;99.90
14749;DHT22;7466;53.574;9.976;2023-11-19T02:00:12;5.40;99.90
14749;DHT22;7466;53.574;9.976;2023-11-19T02:02:40;5.40;99.90
14749;DHT22;7466;53.574;9.976;2023-11-19T02:05:07;5.40;99.90
14749;DHT22;7466;53.574;9.976;2023-11-19T02:07:35;5.40;99.90
14749;DHT22;7466;53.574;9.976;2023-11-19T02:10:01;5.40;99.90
14749;DHT22;7466;53.574;9.976;2023-11-19T02:12:31;5.40;99.90
14749;DHT22;7466;53.574;9.976;2023-11-19T02:14:59;5.40;99.90
14749;DHT22;7466;53.574;9.976;2023-11-19T02:17:26;5.40;99.90
14749;DHT22;7466;53.574;9.976;2023-11-19T02:19:53;5.40;99.90
14749;DHT22;7466;53.574;9.976;2023-11-19T02:22:20;5.40;99.90
14749;DHT22;7466;53.574;9.976;2023-11-19T02:24:51;5.50;99.90
14749;DHT22;7466;53.574;9.976;2023-11-19T02:30:00;5.40;99.90
14749;DHT22;7466;53.574;9.976;2023-11-19T02:32:31;5.50;99.90
14749;DHT22;7466;53.574;9.976;2023-11-19T02:34:58;5.50;99.90
14749;DHT22;7466;53.574;9.976;2023-11-19T02:37:25;5.50;99.90
14749;DHT22;7466;53.574;9.976;2023-11-19T02:39:51;5.50;99.90
14749;DHT22;7466;53.574;9.976;2023-11-19T02:42:18;5.50;99.90
14749;DHT22;7466;53.574;9.976;2023-11-19T02:44:45;5.60;99.90
14749;DHT22;7466;53.574;9.976;2023-11-19T02:47:13;5.60;99.90
14749;DHT22;7466;53.574;9.976;2023-11-19T02:49:40;5.70;99.90
14749;DHT22;7466;53.574;9.976;2023-11-19T02:52:07;5.70;99.90
14749;DHT22;7466;53.574;9.976;2023-11-19T02:54:35;5.70;99.90
14749;DHT22;7466;53.574;9.976;2023-11-19T02:57:03;5.70;99.90
14749;DHT22;7466;53.574;9.976;2023-11-19T02:59:30;5.70;99.90
14749;DHT22;7466;53.574;9.976;2023-11-19T03:02:04;5.70;99.90
14749;DHT22;7466;53.574;9.976;2023-11-19T03:04:33;5.70;99.90
14749;DHT22;7466;53.574;9.976;2023-11-19T03:07:00;5.80;99.90
14749;DHT22;7466;53.574;9.976;2023-11-19T03:09:27;5.80;99.90
14749;DHT22;7466;53.574;9.976;2023-11-19T03:11:55;5.80;99.90
14749;DHT22;7466;53.574;9.976;2023-11-19T03:14:21;5.80;99.90
14749;DHT22;7466;53.574;9.976;2023-11-19T03:16:49;5.80;99.90
14749;DHT22;7466;53.574;9.976;2023-11-19T03:19:16;5.90;99.90
14749;DHT22;7466;53.574;9.976;2023-11-19T03:21:44;5.90;99.90
14749;DHT22;7466;53.574;9.976;2023-11-19T03:24:13;5.90;99.90
14749;DHT22;7466;53.574;9.976;2023-11-19T03:26:40;5.90;99.90
14749;DHT22;7466;53.574;9.976;2023-11-19T03:29:08;6.00;99.90
14749;DHT22;7466;53.574;9.976;2023-11-19T03:31:35;6.00;99.90
14749;DHT22;7466;53.574;9.976;2023-11-19T03:34:01;6.00;99.90
14749;DHT22;7466;53.574;9.976;2023-11-19T03:36:32;6.10;99.90
14749;DHT22;7466;53.574;9.976;2023-11-19T03:39:00;6.10;99.90
14749;DHT22;7466;53.574;9.976;2023-11-19T03:41:28;6.10;99.90
14749;DHT22;7466;53.574;9.976;2023-11-19T03:43:56;6.10;99.90
14749;DHT22;7466;53.574;9.976;2023-11-19T03:46:23;6.20;99.90
14749;DHT22;7466;53.574;9.976;2023-11-19T03:48:50;6.30;99.90
14749;DHT22;7466;53.574;9.976;2023-11-19T03:51:16;6.30;99.90
14749;DHT22;7466;53.574;9.976;2023-11-19T03:53:43;6.30;99.90
14749;DHT22;7466;53.574;9.976;2023-11-19T03:56:12;6.30;99.90
14749;DHT22;7466;53.574;9.976;2023-11-19T03:58:39;6.30;99.90
14749;DHT22;7466;53.574;9.976;2023-11-19T04:01:05;6.30;99.90
14749;DHT22;7466;53.574;9.976;2023-11-19T04:03:31;6.40;99.90
14749;DHT22;7466;53.574;9.976;2023-11-19T04:05:58;6.30;99.90
14749;DHT22;7466;53.574;9.976;2023-11-19T04:08:25;6.30;99.90
14749;DHT22;7466;53.574;9.976;2023-11-19T04:10:52;6.40;99.90
14749;DHT22;7466;53.574;9.976;2023-11-19T04:13:20;6.40;99.90
14749;DHT22;7466;53.574;9.976;2023-11-19T04:15:49;6.40;99.90
14749;DHT22;7466;53.574;9.976;2023-11-19T04:18:16;6.40;99.90
14749;DHT22;7466;53.574;9.976;2023-11-19T04:20:42;6.40;99.90
14749;DHT22;7466;53.574;9.976;2023-11-19T04:23:09;6.40;99.90
14749;DHT22;7466;53.574;9.976;2023-11-19T04:25:36;6.40;99.90
14749;DHT22;7466;53.574;9.976;2023-11-19T04:28:03;6.40;99.90
14749;DHT22;7466;53.574;9.976;2023-11-19T04:30:31;6.40;99.90
14749;DHT22;7466;53.574;9.976;2023-11-19T04:32:58;6.40;99.90
14749;DHT22;7466;53.574;9.976;2023-11-19T04:35:25;6.40;99.90
14749;DHT22;7466;53.574;9.976;2023-11-19T04:37:52;6.40;99.90
14749;DHT22;7466;53.574;9.976;2023-11-19T04:40:19;6.50;99.90
14749;DHT22;7466;53.574;9.976;2023-11-19T04:42:48;6.50;99.90
14749;DHT22;7466;53.574;9.976;2023-11-19T04:45:14;6.50;99.90
14749;DHT22;7466;53.574;9.976;2023-11-19T04:47:43;6.50;99.90
14749;DHT22;7466;53.574;9.976;2023-11-19T04:50:10;6.60;99.90
14749;DHT22;7466;53.574;9.976;2023-11-19T04:52:37;6.60;99.90
14749;DHT22;7466;53.574;9.976;2023-11-19T04:55:06;6.60;99.90
14749;DHT22;7466;53.574;9.976;2023-11-19T04:57:33;6.70;99.90
14749;DHT22;7466;53.574;9.976;2023-11-19T04:59:59;6.70;99.90
14749;DHT22;7466;53.574;9.976;2023-11-19T05:02:26;6.80;99.90
14749;DHT22;7466;53.574;9.976;2023-11-19T05:04:54;6.90;99.90
14749;DHT22;7466;53.574;9.976;2023-11-19T05:07:21;7.00;99.90
14749;DHT22;7466;53.574;9.976;2023-11-19T05:09:47;7.10;99.90
14749;DHT22;7466;53.574;9.976;2023-11-19T05:12:14;7.10;99.90
14749;DHT22;7466;53.574;9.976;2023-11-19T05:14:41;7.20;99.90
14749;DHT22;7466;53.574;9.976;2023-11-19T05:17:13;7.30;99.90
14749;DHT22;7466;53.574;9.976;2023-11-19T05:19:40;7.40;99.90
14749;DHT22;7466;53.574;9.976;2023-11-19T05:22:08;7.40;99.90
14749;DHT22;7466;53.574;9.976;2023-11-19T05:24:35;7.50;99.90
14749;DHT22;7466;53.574;9.976;2023-11-19T05:27:02;7.60;99.90
14749;DHT22;7466;53.574;9.976;2023-11-19T05:29:29;7.70;99.90
14749;DHT22;7466;53.574;9.976;2023-11-19T05:31:55;7.80;99.90
14749;DHT22;7466;53.574;9.976;2023-11-19T05:34:22;7.90;99.90
14749;DHT22;7466;53.574;9.976;2023-11-19T05:36:50;8.10;99.90
14749;DHT22;7466;53.574;9.976;2023-11-19T05:39:18;8.20;99.90
14749;DHT22;7466;53.574;9.976;2023-11-19T05:41:45;8.40;99.90
14749;DHT22;7466;53.574;9.976;2023-11-19T05:44:12;8.60;99.90
14749;DHT22;7466;53.574;9.976;2023-11-19T05:46:38;8.70;99.90
14749;DHT22;7466;53.574;9.976;2023-11-19T05:49:08;9.00;99.90
14749;DHT22;7466;53.574;9.976;2023-11-19T05:51:36;9.00;99.90
14749;DHT22;7466;53.574;9.976;2023-11-19T05:54:04;9.10;99.90
14749;DHT22;7466;53.574;9.976;2023-11-19T05:56:33;9.20;99.90
14749;DHT22;7466;53.574;9.976;2023-11-19T05:59:00;9.30;99.90
14749;DHT22;7466;53.574;9.976;2023-11-19T06:01:29;9.30;99.90
14749;DHT22;7466;53.574;9.976;2023-11-19T06:03:55;9.40;99.90
14749;DHT22;7466;53.574;9.976;2023-11-19T06:06:22;9.50;99.90
14749;DHT22;7466;53.574;9.976;2023-11-19T06:08:49;9.50;99.90
14749;DHT22;7466;53.574;9.976;2023-11-19T06:11:16;9.60;99.90
14749;DHT22;7466;53.574;9.976;2023-11-19T06:13:47;9.70;99.90
14749;DHT22;7466;53.574;9.976;2023-11-19T06:16:15;9.80;99.90
14749;DHT22;7466;53.574;9.976;2023-11-19T06:18:42;9.80;99.90
14749;DHT22;7466;53.574;9.976;2023-11-19T06:21:09;9.80;99.90
14749;DHT22;7466;53.574;9.976;2023-11-19T06:23:36;9.90;99.90
14749;DHT22;7466;53.574;9.976;2023-11-19T06:26:03;10.00;99.90
14749;DHT22;7466;53.574;9.976;2023-11-19T06:28:30;10.00;99.90
14749;DHT22;7466;53.574;9.976;2023-11-19T06:30:58;10.10;99.90
14749;DHT22;7466;53.574;9.976;2023-11-19T06:33:25;10.10;99.90
14749;DHT22;7466;53.574;9.976;2023-11-19T06:35:52;10.10;99.90
14749;DHT22;7466;53.574;9.976;2023-11-19T06:38:20;10.20;99.90
14749;DHT22;7466;53.574;9.976;2023-11-19T06:40:46;10.20;99.90
14749;DHT22;7466;53.574;9.976;2023-11-19T06:43:13;10.20;99.90
14749;DHT22;7466;53.574;9.976;2023-11-19T06:45:41;10.20;99.90
14749;DHT22;7466;53.574;9.976;2023-11-19T06:48:09;10.20;99.90
14749;DHT22;7466;53.574;9.976;2023-11-19T06:50:36;10.30;99.90
14749;DHT22;7466;53.574;9.976;2023-11-19T06:53:02;10.30;99.90
14749;DHT22;7466;53.574;9.976;2023-11-19T06:55:30;10.40;99.90
14749;DHT22;7466;53.574;9.976;2023-11-19T06:57:59;10.40;99.90
14749;DHT22;7466;53.574;9.976;2023-11-19T07:00:26;10.40;99.90
14749;DHT22;7466;53.574;9.976;2023-11-19T07:02:53;10.50;99.90
14749;DHT22;7466;53.574;9.976;2023-11-19T07:05:21;10.50;99.90
14749;DHT22;7466;53.574;9.976;2023-11-19T07:07:48;10.60;99.90
14749;DHT22;7466;53.574;9.976;2023-11-19T07:10:16;10.60;99.90
14749;DHT22;7466;53.574;9.976;2023-11-19T07:12:42;10.60;99.90
14749;DHT22;7466;53.574;9.976;2023-11-19T07:15:10;10.60;99.90
14749;DHT22;7466;53.574;9.976;2023-11-19T07:17:38;10.60;99.90
14749;DHT22;7466;53.574;9.976;2023-11-19T07:20:06;10.60;99.90
14749;DHT22;7466;53.574;9.976;2023-11-19T07:22:34;10.70;99.90
14749;DHT22;7466;53.574;9.976;2023-11-19T07:25:01;10.70;99.90
14749;DHT22;7466;53.574;9.976;2023-11-19T07:27:27;10.70;99.90
14749;DHT22;7466;53.574;9.976;2023-11-19T07:29:54;10.70;99.90
14749;DHT22;7466;53.574;9.976;2023-11-19T07:32:21;10.70;99.90
14749;DHT22;7466;53.574;9.976;2023-11-19T07:34:48;10.80;99.90
14749;DHT22;7466;53.574;9.976;2023-11-19T07:37:14;10.90;99.90
14749;DHT22;7466;53.574;9.976;2023-11-19T07:39:43;10.80;99.90
14749;DHT22;7466;53.574;9.976;2023-11-19T07:42:10;10.90;99.90
14749;DHT22;7466;53.574;9.976;2023-11-19T07:44:37;10.90;99.90
14749;DHT22;7466;53.574;9.976;2023-11-19T07:47:04;10.90;99.90
14749;DHT22;7466;53.574;9.976;2023-11-19T07:49:31;10.90;99.90
14749;DHT22;7466;53.574;9.976;2023-11-19T07:51:57;10.90;99.90
14749;DHT22;7466;53.574;9.976;2023-11-19T07:54:24;11.00;99.90
14749;DHT22;7466;53.574;9.976;2023-11-19T07:56:52;11.10;99.90
14749;DHT22;7466;53.574;9.976;2023-11-19T07:59:20;11.10;99.90
14749;DHT22;7466;53.574;9.976;2023-11-19T08:01:47;11.10;99.90
14749;DHT22;7466;53.574;9.976;2023-11-19T08:04:14;11.20;99.90
14749;DHT22;7466;53.574;9.976;2023-11-19T08:06:40;11.20;99.90
14749;DHT22;7466;53.574;9.976;2023-11-19T08:09:07;11.20;99.90
14749;DHT22;7466;53.574;9.976;2023-11-19T08:11:39;11.20;99.90
14749;DHT22;7466;53.574;9.976;2023-11-19T08:14:07;11.20;99.90
14749;DHT22;7466;53.574;9.976;2023-11-19T08:16:34;11.20;99.90
14749;DHT22;7466;53.574;9.976;2023-11-19T08:19:02;11.20;99.90
14749;DHT22;7466;53.574;9.976;2023-11-19T08:21:28;11.20;99.90
14749;DHT22;7466;53.574;9.976;2023-11-19T08:23:55;11.30;99.90
14749;DHT22;7466;53.574;9.976;2023-11-19T08:26:22;11.30;99.90
14749;DHT22;7466;53.574;9.976;2023-11-19T08:28:48;11.30;99.90
14749;DHT22;7466;53.574;9.976;2023-11-19T08:31:18;11.30;99.90
14749;DHT22;7466;53.574;9.976;2023-11-19T08:33:45;11.30;99.90
14749;DHT22;7466;53.574;9.976;2023-11-19T08:36:15;11.30;99.90
14749;DHT22;7466;53.574;9.976;2023-11-19T08:38:43;11.30;99.90
14749;DHT22;7466;53.574;9.976;2023-11-19T08:41:09;11.30;99.90
14749;DHT22;7466;53.574;9.976;2023-11-19T08:43:36;11.30;99.90
14749;DHT22;7466;53.574;9.976;2023-11-19T08:46:04;11.40;99.90
14749;DHT22;7466;53.574;9.976;2023-11-19T08:48:37;11.40;99.90
14749;DHT22;7466;53.574;9.976;2023-11-19T08:51:04;11.40;99.90
14749;DHT22;7466;53.574;9.976;2023-11-19T08:53:31;11.40;99.90
14749;DHT22;7466;53.574;9.976;2023-11-19T08:55:57;11.40;99.90
14749;DHT22;7466;53.574;9.976;2023-11-19T08:58:24;11.40;99.90
14749;DHT22;7466;53.574;9.976;2023-11-19T09:00:51;11.40;99.90
14749;DHT22;7466;53.574;9.976;2023-11-19T09:03:18;11.40;99.90
14749;DHT22;7466;53.574;9.976;2023-11-19T09:05:47;11.40;99.90
14749;DHT22;7466;53.574;9.976;2023-11-19T09:08:13;11.50;99.90
14749;DHT22;7466;53.574;9.976;2023-11-19T09:10:40;11.40;99.90
14749;DHT22;7466;53.574;9.976;2023-11-19T09:13:07;11.50;99.90
14749;DHT22;7466;53.574;9.976;2023-11-19T09:15:33;11.50;99.90
14749;DHT22;7466;53.574;9.976;2023-11-19T09:18:00;11.50;99.90
14749;DHT22;7466;53.574;9.976;2023-11-19T09:20:27;11.60;99.90
14749;DHT22;7466;53.574;9.976;2023-11-19T09:22:59;11.60;99.90
14749;DHT22;7466;53.574;9.976;2023-11-19T09:25:26;11.70;99.90
14749;DHT22;7466;53.574;9.976;2023-11-19T09:27:52;11.70;99.90
14749;DHT22;7466;53.574;9.976;2023-11-19T09:30:19;11.70;99.90
14749;DHT22;7466;53.574;9.976;2023-11-19T09:32:46;11.70;99.90
14749;DHT22;7466;53.574;9.976;2023-11-19T09:35:13;11.70;99.90
14749;DHT22;7466;53.574;9.976;2023-11-19T09:37:40;11.70;99.90
14749;DHT22;7466;53.574;9.976;2023-11-19T09:40:09;11.70;99.90
14749;DHT22;7466;53.574;9.976;2023-11-19T09:42:43;11.80;99.90
14749;DHT22;7466;53.574;9.976;2023-11-19T09:45:13;11.80;99.90
14749;DHT22;7466;53.574;9.976;2023-11-19T09:47:42;11.80;99.90
14749;DHT22;7466;53.574;9.976;2023-11-19T09:50:11;11.80;99.90
14749;DHT22;7466;53.574;9.976;2023-11-19T09:52:40;11.90;99.90
14749;DHT22;7466;53.574;9.976;2023-11-19T09:55:08;11.80;99.90
14749;DHT22;7466;53.574;9.976;2023-11-19T09:57:35;11.80;99.90
14749;DHT22;7466;53.574;9.976;2023-11-19T10:00:05;11.80;99.90
14749;DHT22;7466;53.574;9.976;2023-11-19T10:02:34;11.80;99.90
14749;DHT22;7466;53.574;9.976;2023-11-19T10:05:04;11.80;99.90
14749;DHT22;7466;53.574;9.976;2023-11-19T10:07:31;11.70;99.90
14749;DHT22;7466;53.574;9.976;2023-11-19T10:09:58;11.70;99.90
14749;DHT22;7466;53.574;9.976;2023-11-19T10:12:27;11.70;99.90
14749;DHT22;7466;53.574;9.976;2023-11-19T10:14:56;11.60;99.90
14749;DHT22;7466;53.574;9.976;2023-11-19T10:17:27;11.60;99.90
14749;DHT22;7466;53.574;9.976;2023-11-19T10:19:54;11.60;99.90
14749;DHT22;7466;53.574;9.976;2023-11-19T10:22:22;11.50;99.90
14749;DHT22;7466;53.574;9.976;2023-11-19T10:24:49;11.50;99.90
14749;DHT22;7466;53.574;9.976;2023-11-19T10:27:17;11.40;99.90
14749;DHT22;7466;53.574;9.976;2023-11-19T10:29:46;11.40;99.90
14749;DHT22;7466;53.574;9.976;2023-11-19T10:32:14;11.40;99.90
14749;DHT22;7466;53.574;9.976;2023-11-19T10:34:41;11.40;99.90
14749;DHT22;7466;53.574;9.976;2023-11-19T10:37:08;11.40;99.90
14749;DHT22;7466;53.574;9.976;2023-11-19T10:39:54;11.40;99.90
14749;DHT22;7466;53.574;9.976;2023-11-19T10:42:21;11.40;99.90
14749;DHT22;7466;53.574;9.976;2023-11-19T10:44:49;11.40;99.90
14749;DHT22;7466;53.574;9.976;2023-11-19T10:47:18;11.30;99.90
14749;DHT22;7466;53.574;9.976;2023-11-19T10:49:46;11.30;99.90
14749;DHT22;7466;53.574;9.976;2023-11-19T10:52:17;11.30;99.90
14749;DHT22;7466;53.574;9.976;2023-11-19T10:54:44;11.30;99.90
14749;DHT22;7466;53.574;9.976;2023-11-19T10:57:18;11.30;99.90
14749;DHT22;7466;53.574;9.976;2023-11-19T10:59:46;11.40;99.90
14749;DHT22;7466;53.574;9.976;2023-11-19T11:02:18;11.40;99.90
14749;DHT22;7466;53.574;9.976;2023-11-19T11:04:47;11.40;99.90
14749;DHT22;7466;53.574;9.976;2023-11-19T11:07:14;11.40;99.90
14749;DHT22;7466;53.574;9.976;2023-11-19T11:09:42;11.50;99.90
14749;DHT22;7466;53.574;9.976;2023-11-19T11:12:09;11.50;99.90
14749;DHT22;7466;53.574;9.976;2023-11-19T11:14:37;11.50;99.90
14749;DHT22;7466;53.574;9.976;2023-11-19T11:17:06;11.50;99.90
14749;DHT22;7466;53.574;9.976;2023-11-19T11:19:36;11.50;99.90
14749;DHT22;7466;53.574;9.976;2023-11-19T11:22:04;11.40;99.90
14749;DHT22;7466;53.574;9.976;2023-11-19T11:28:03;11.50;99.90
14749;DHT22;7466;53.574;9.976;2023-11-19T11:30:39;11.50;99.90
14749;DHT22;7466;53.574;9.976;2023-11-19T11:33:32;11.50;99.90
14749;DHT22;7466;53.574;9.976;2023-11-19T11:36:11;11.50;99.90
14749;DHT22;7466;53.574;9.976;2023-11-19T11:38:40;11.40;99.90
14749;DHT22;7466;53.574;9.976;2023-11-19T11:41:18;11.40;99.90
14749;DHT22;7466;53.574;9.976;2023-11-19T11:43:47;11.40;99.90
14749;DHT22;7466;53.574;9.976;2023-11-19T11:49:28;11.50;99.90
14749;DHT22;7466;53.574;9.976;2023-11-19T11:52:04;11.60;99.90
14749;DHT22;7466;53.574;9.976;2023-11-19T11:54:31;11.60;99.90
14749;DHT22;7466;53.574;9.976;2023-11-19T11:57:02;11.60;99.90
14749;DHT22;7466;53.574;9.976;2023-11-19T11:59:36;11.70;99.90
14749;DHT22;7466;53.574;9.976;2023-11-19T12:02:03;11.70;99.90
14749;DHT22;7466;53.574;9.976;2023-11-19T12:04:30;11.70;99.90
14749;DHT22;7466;53.574;9.976;2023-11-19T12:07:06;11.80;99.90
14749;DHT22;7466;53.574;9.976;2023-11-19T12:09:33;11.90;99.90
14749;DHT22;7466;53.574;9.976;2023-11-19T12:12:19;11.90;99.90
14749;DHT22;7466;53.574;9.976;2023-11-19T12:15:04;11.90;99.90
14749;DHT22;7466;53.574;9.976;2023-11-19T12:17:41;12.00;99.90
14749;DHT22;7466;53.574;9.976;2023-11-19T12:20:10;12.10;99.90
14749;DHT22;7466;53.574;9.976;2023-11-19T12:22:40;12.00;99.90
14749;DHT22;7466;53.574;9.976;2023-11-19T12:25:08;12.00;99.90
14749;DHT22;7466;53.574;9.976;2023-11-19T12:27:36;11.90;99.90
14749;DHT22;7466;53.574;9.976;2023-11-19T12:30:03;11.90;99.90
14749;DHT22;7466;53.574;9.976;2023-11-19T12:32:40;11.80;99.90
14749;DHT22;7466;53.574;9.976;2023-11-19T12:35:08;11.80;99.90
14749;DHT22;7466;53.574;9.976;2023-11-19T12:37:42;11.70;99.90
14749;DHT22;7466;53.574;9.976;2023-11-19T12:40:16;11.60;99.90
14749;DHT22;7466;53.574;9.976;2023-11-19T12:42:43;11.60;99.90
14749;DHT22;7466;53.574;9.976;2023-11-19T12:45:10;11.60;99.90
14749;DHT22;7466;53.574;9.976;2023-11-19T12:47:38;11.60;99.90
14749;DHT22;7466;53.574;9.976;2023-11-19T12:50:05;11.60;99.90
14749;DHT22;7466;53.574;9.976;2023-11-19T12:52:32;11.60;99.90
14749;DHT22;7466;53.574;9.976;2023-11-19T12:55:01;11.60;99.90
14749;DHT22;7466;53.574;9.976;2023-11-19T12:57:38;11.60;99.90
14749;DHT22;7466;53.574;9.976;2023-11-19T13:00:06;11.60;99.90
14749;DHT22;7466;53.574;9.976;2023-11-19T13:02:45;11.60;99.90
14749;DHT22;7466;53.574;9.976;2023-11-19T13:05:26;11.60;99.90
14749;DHT22;7466;53.574;9.976;2023-11-19T13:08:00;11.80;99.90
14749;DHT22;7466;53.574;9.976;2023-11-19T13:10:29;11.80;99.90
14749;DHT22;7466;53.574;9.976;2023-11-19T13:13:04;11.80;99.90
14749;DHT22;7466;53.574;9.976;2023-11-19T13:15:31;11.80;99.90
14749;DHT22;7466;53.574;9.976;2023-11-19T13:17:58;11.80;99.90
14749;DHT22;7466;53.574;9.976;2023-11-19T13:20:25;11.80;99.90
14749;DHT22;7466;53.574;9.976;2023-11-19T13:22:56;11.80;99.90
14749;DHT22;7466;53.574;9.976;2023-11-19T13:25:23;11.90;99.90
14749;DHT22;7466;53.574;9.976;2023-11-19T13:27:51;11.80;99.90
14749;DHT22;7466;53.574;9.976;2023-11-19T13:30:17;11.80;99.90
14749;DHT22;7466;53.574;9.976;2023-11-19T13:32:44;11.80;99.90
14749;DHT22;7466;53.574;9.976;2023-11-19T13:35:12;11.80;99.90
14749;DHT22;7466;53.574;9.976;2023-11-19T13:37:39;11.80;99.90
14749;DHT22;7466;53.574;9.976;2023-11-19T13:40:07;11.80;99.90
14749;DHT22;7466;53.574;9.976;2023-11-19T13:42:35;11.80;99.90
14749;DHT22;7466;53.574;9.976;2023-11-19T13:45:04;11.70;99.90
14749;DHT22;7466;53.574;9.976;2023-11-19T13:47:36;11.70;99.90
14749;DHT22;7466;53.574;9.976;2023-11-19T13:50:03;11.70;99.90
14749;DHT22;7466;53.574;9.976;2023-11-19T13:52:31;11.70;99.90
14749;DHT22;7466;53.574;9.976;2023-11-19T13:54:58;11.70;99.90
14749;DHT22;7466;53.574;9.976;2023-11-19T13:57:25;11.70;99.90
14749;DHT22;7466;53.574;9.976;2023-11-19T13:59:52;11.70;99.90
14749;DHT22;7466;53.574;9.976;2023-11-19T14:02:20;11.80;99.90
14749;DHT22;7466;53.574;9.976;2023-11-19T14:04:46;11.80;99.90
14749;DHT22;7466;53.574;9.976;2023-11-19T14:07:13;11.80;99.90
14749;DHT22;7466;53.574;9.976;2023-11-19T14:09:42;11.80;99.90
14749;DHT22;7466;53.574;9.976;2023-11-19T14:12:08;11.90;99.90
14749;DHT22;7466;53.574;9.976;2023-11-19T14:14:38;11.90;99.90
14749;DHT22;7466;53.574;9.976;2023-11-19T14:17:05;11.90;99.90
14749;DHT22;7466;53.574;9.976;2023-11-19T14:19:34;11.90;99.90
14749;DHT22;7466;53.574;9.976;2023-11-19T14:22:01;11.90;99.90
14749;DHT22;7466;53.574;9.976;2023-11-19T14:24:28;11.80;99.90
14749;DHT22;7466;53.574;9.976;2023-11-19T14:26:55;11.80;99.90
14749;DHT22;7466;53.574;9.976;2023-11-19T14:29:24;11.60;99.90
14749;DHT22;7466;53.574;9.976;2023-11-19T14:31:52;11.60;99.90
14749;DHT22;7466;53.574;9.976;2023-11-19T14:34:19;11.50;99.90
14749;DHT22;7466;53.574;9.976;2023-11-19T14:36:48;11.40;99.90
14749;DHT22;7466;53.574;9.976;2023-11-19T14:39:15;11.30;99.90
14749;DHT22;7466;53.574;9.976;2023-11-19T14:41:43;11.30;99.90
14749;DHT22;7466;53.574;9.976;2023-11-19T14:44:10;11.30;99.90
14749;DHT22;7466;53.574;9.976;2023-11-19T14:46:36;11.20;99.90
14749;DHT22;7466;53.574;9.976;2023-11-19T14:49:03;11.20;99.90
14749;DHT22;7466;53.574;9.976;2023-11-19T14:51:30;11.20;99.90
14749;DHT22;7466;53.574;9.976;2023-11-19T14:53:58;11.20;99.90
14749;DHT22;7466;53.574;9.976;2023-11-19T14:56:25;11.20;99.90
14749;DHT22;7466;53.574;9.976;2023-11-19T14:58:51;11.10;99.90
14749;DHT22;7466;53.574;9.976;2023-11-19T15:01:17;11.10;99.90
14749;DHT22;7466;53.574;9.976;2023-11-19T15:03:44;11.00;99.90
14749;DHT22;7466;53.574;9.976;2023-11-19T15:06:11;11.00;99.90
14749;DHT22;7466;53.574;9.976;2023-11-19T15:08:38;10.90;99.90
14749;DHT22;7466;53.574;9.976;2023-11-19T15:11:06;10.50;99.90
14749;DHT22;7466;53.574;9.976;2023-11-19T15:13:34;10.30;99.90
14749;DHT22;7466;53.574;9.976;2023-11-19T15:16:03;10.30;99.90
14749;DHT22;7466;53.574;9.976;2023-11-19T15:18:30;10.20;99.90
14749;DHT22;7466;53.574;9.976;2023-11-19T15:20:57;10.10;99.90
14749;DHT22;7466;53.574;9.976;2023-11-19T15:23:24;10.10;99.90
14749;DHT22;7466;53.574;9.976;2023-11-19T15:25:51;10.00;99.90
14749;DHT22;7466;53.574;9.976;2023-11-19T15:28:19;10.00;99.90
14749;DHT22;7466;53.574;9.976;2023-11-19T15:30:46;10.00;99.90
14749;DHT22;7466;53.574;9.976;2023-11-19T15:33:13;10.00;99.90
14749;DHT22;7466;53.574;9.976;2023-11-19T15:35:40;10.00;99.90
14749;DHT22;7466;53.574;9.976;2023-11-19T15:38:07;10.10;99.90
14749;DHT22;7466;53.574;9.976;2023-11-19T15:40:35;10.20;99.90
14749;DHT22;7466;53.574;9.976;2023-11-19T15:43:02;10.20;99.90
14749;DHT22;7466;53.574;9.976;2023-11-19T15:45:30;10.20;99.90
14749;DHT22;7466;53.574;9.976;2023-11-19T15:48:02;10.30;99.90
14749;DHT22;7466;53.574;9.976;2023-11-19T15:50:32;10.40;99.90
14749;DHT22;7466;53.574;9.976;2023-11-19T15:52:58;10.40;99.90
14749;DHT22;7466;53.574;9.976;2023-11-19T15:55:27;10.40;99.90
14749;DHT22;7466;53.574;9.976;2023-11-19T15:57:55;10.50;99.90
14749;DHT22;7466;53.574;9.976;2023-11-19T16:00:22;10.50;99.90
14749;DHT22;7466;53.574;9.976;2023-11-19T16:02:50;10.50;99.90
14749;DHT22;7466;53.574;9.976;2023-11-19T16:05:18;10.50;99.90
14749;DHT22;7466;53.574;9.976;2023-11-19T16:07:45;10.50;99.90